^^
Grace C. Lehan Memorial Weather Station Historical Data
Daily Summary for April 13, 2021 Units:  English    Metric   Both
Daily Weekly Monthly Yearly
  High: Low: Average:
Temperature: 98.3 °F 73.5 °F 86.4 °F
Dew Point: 77.3 °F 70.9 °F 74.3 °F
Humidity: 93% 46.7% 69%
Wind Speed: 4.6mph 0mph 0.4mph
Wind Gust: 11mph - -
Wind- - West
Pressure: 30.01 in 29.92 in -
Precipitation: 0.00 in    
 
 
Tabular Data for April 13, 2021
Time Temperature Dew Point Pressure Wind Wind Speed Wind Gust Humidity Rainfall Rate (Hourly) solar
00:09 77.2 °F 72 °F 29.94 in Calm     84% 0.00 in 0 W/m2
00:14 77.2 °F 72.3 °F 29.94 in Calm     84.7% 0.00 in 0 W/m2
00:19 77.2 °F 72.3 °F 29.94 in Calm     85% 0.00 in 0 W/m2
00:24 77.1 °F 72.3 °F 29.94 in Calm     85% 0.00 in 0 W/m2
00:29 77.1 °F 72.3 °F 29.94 in Calm     85% 0.00 in 0 W/m2
00:34 77.1 °F 72 °F 29.94 in Calm     84.2% 0.00 in 0 W/m2
00:39 77 °F 72.1 °F 29.95 in Calm     84.8% 0.00 in 0 W/m2
00:44 77.1 °F 72.2 °F 29.95 in Calm     85% 0.00 in 0 W/m2
00:49 77.1 °F 72.4 °F 29.95 in Calm     85.4% 0.00 in 0 W/m2
00:54 77.1 °F 72.4 °F 29.95 in Calm     85.5% 0.00 in 0 W/m2
00:59 77 °F 72.2 °F 29.95 in Calm     85% 0.00 in 0 W/m2
01:04 77 °F 72.2 °F 29.96 in Calm     85.1% 0.00 in 0 W/m2
01:09 77 °F 72.2 °F 29.96 in Calm     85.2% 0.00 in 0 W/m2
01:14 77 °F 72.1 °F 29.96 in Calm     85% 0.00 in 0 W/m2
01:19 76.9 °F 72.1 °F 29.96 in Calm     85% 0.00 in 0 W/m2
01:24 76.9 °F 72.1 °F 29.96 in Calm     85% 0.00 in 0 W/m2
01:29 76.9 °F 72 °F 29.96 in Calm     85% 0.00 in 0 W/m2
01:34 76.8 °F 71.9 °F 29.96 in Calm     84.8% 0.00 in 0 W/m2
01:39 76.8 °F 71.9 °F 29.96 in Calm     84.8% 0.00 in 0 W/m2
01:44 76.9 °F 72.1 °F 29.95 in Calm     85% 0.00 in 0 W/m2
01:49 76.9 °F 72.1 °F 29.96 in Calm     85% 0.00 in 0 W/m2
01:54 77 °F 72.1 °F 29.95 in Calm     85% 0.00 in 0 W/m2
01:59 77 °F 72.1 °F 29.95 in Calm     85% 0.00 in 0 W/m2
02:04 76.9 °F 72.1 °F 29.96 in Calm     85% 0.00 in 0 W/m2
02:09 76.9 °F 72.1 °F 29.96 in Calm     85% 0.00 in 0 W/m2
02:14 76.9 °F 72.1 °F 29.96 in Calm     85% 0.00 in 0 W/m2
02:19 76.9 °F 72.3 °F 29.96 in Calm     85.8% 0.00 in 0 W/m2
02:24 76.8 °F 72.3 °F 29.96 in Calm     86% 0.00 in 0 W/m2
02:29 76.8 °F 72.3 °F 29.96 in Calm     86% 0.00 in 0 W/m2
02:34 76.6 °F 72.2 °F 29.96 in Calm     86.2% 0.00 in 0 W/m2
02:39 76.5 °F 72.4 °F 29.96 in Calm   1 mph 87% 0.00 in 0 W/m2
02:44 76.5 °F 72.3 °F 29.96 in East 0.1 mph 2 mph 87% 0.00 in 0 W/m2
02:49 76.4 °F 72.2 °F 29.95 in Calm   2 mph 87% 0.00 in 0 W/m2
02:54 76.3 °F 72.2 °F 29.95 in Calm   2 mph 87% 0.00 in 0 W/m2
02:59 76.3 °F 72.2 °F 29.95 in Calm   2 mph 87% 0.00 in 0 W/m2
03:04 76.3 °F 72.1 °F 29.94 in East 0.1 mph 2 mph 87% 0.00 in 0 W/m2
03:09 76.2 °F 72.1 °F 29.94 in East 0.1 mph 3 mph 87% 0.00 in 0 W/m2
03:14 76.2 °F 72 °F 29.94 in Calm   3 mph 87% 0.00 in 0 W/m2
03:19 76.1 °F 72 °F 29.94 in Calm   3 mph 87% 0.00 in 0 W/m2
03:24 76.1 °F 71.9 °F 29.94 in Calm   3 mph 87% 0.00 in 0 W/m2
03:29 76.1 °F 71.9 °F 29.94 in Calm   3 mph 87% 0.00 in 0 W/m2
03:34 76.1 °F 72 °F 29.94 in Calm   3 mph 87.1% 0.00 in 0 W/m2
03:39 76 °F 72.2 °F 29.95 in Calm     88% 0.00 in 0 W/m2
03:44 76 °F 72.2 °F 29.95 in Calm     88% 0.00 in 0 W/m2
03:49 75.9 °F 72.1 °F 29.95 in Calm     88% 0.00 in 0 W/m2
03:54 75.8 °F 72 °F 29.95 in Calm     88% 0.00 in 0 W/m2
03:59 75.7 °F 71.9 °F 29.95 in Calm     88% 0.00 in 0 W/m2
04:00 75.7 °F 71.9 °F 29.95 in Calm     88% 0.00 in 0 W/m2
04:09 75.6 °F 72.1 °F 29.95 in Calm     89% 0.00 in 0 W/m2
04:14 75.5 °F 72.1 °F 29.95 in Calm     89% 0.00 in 0 W/m2
04:19 75.5 °F 72 °F 29.95 in Calm     89% 0.00 in 0 W/m2
04:24 75.4 °F 71.9 °F 29.95 in Calm     89% 0.00 in 0 W/m2
04:29 75.3 °F 71.8 °F 29.95 in Calm     89% 0.00 in 0 W/m2
04:34 75.3 °F 71.8 °F 29.95 in Calm     89% 0.00 in 0 W/m2
04:39 75.2 °F 71.7 °F 29.95 in Calm     89% 0.00 in 0 W/m2
04:44 75.1 °F 71.7 °F 29.95 in Calm     89.2% 0.00 in 0 W/m2
04:49 75.1 °F 71.9 °F 29.95 in Calm     90% 0.00 in 0 W/m2
04:54 75 °F 71.9 °F 29.95 in Calm     90% 0.00 in 0 W/m2
04:59 74.9 °F 71.8 °F 29.95 in Calm     90% 0.00 in 0 W/m2
05:04 74.9 °F 71.8 °F 29.96 in Calm     90% 0.00 in 0 W/m2
05:09 74.9 °F 71.7 °F 29.95 in Calm     90% 0.00 in 0 W/m2
05:14 74.7 °F 71.6 °F 29.95 in Calm     90% 0.00 in 0 W/m2
05:19 74.6 °F 71.5 °F 29.95 in Calm     90% 0.00 in 0 W/m2
05:24 74.5 °F 71.4 °F 29.95 in Calm   1 mph 90% 0.00 in 0 W/m2
05:29 74.4 °F 71.4 °F 29.96 in Calm   1 mph 90.3% 0.00 in 0 W/m2
05:34 74.3 °F 71.5 °F 29.96 in Calm   1 mph 91% 0.00 in 0 W/m2
05:39 74.2 °F 71.4 °F 29.96 in Calm     91% 0.00 in 0 W/m2
05:44 74.1 °F 71.3 °F 29.96 in Calm     91% 0.00 in 0 W/m2
05:49 74 °F 71.2 °F 29.96 in Calm     91% 0.00 in 0 W/m2
05:54 73.9 °F 71.1 °F 29.96 in Calm     91% 0.00 in 0 W/m2
05:59 73.8 °F 71.1 °F 29.97 in Calm     91% 0.00 in 0 W/m2
06:04 73.8 °F 71 °F 29.97 in Calm   1 mph 91% 0.00 in 5 W/m2
06:09 73.7 °F 70.9 °F 29.97 in Calm   1 mph 91% 0.00 in 7 W/m2
06:14 73.6 °F 71 °F 29.97 in Calm   1 mph 91.6% 0.00 in 11 W/m2
06:19 73.6 °F 71.1 °F 29.97 in Calm   1 mph 92% 0.00 in 14 W/m2
06:24 73.5 °F 71.1 °F 29.97 in Calm   1 mph 92% 0.00 in 19 W/m2
06:29 73.5 °F 71 °F 29.96 in Calm   1 mph 92% 0.00 in 25 W/m2
06:34 73.5 °F 71.1 °F 29.96 in Calm   1 mph 92% 0.00 in 30 W/m2
06:39 73.6 °F 71.2 °F 29.96 in Calm     92% 0.00 in 33 W/m2
06:44 73.7 °F 71.2 °F 29.97 in Calm     92% 0.00 in 58 W/m2
06:49 73.9 °F 71.4 °F 29.97 in Calm     92% 0.00 in 63 W/m2
06:54 74.1 °F 71.7 °F 29.97 in Calm     92.3% 0.00 in 107 W/m2
06:59 74.4 °F 72.2 °F 29.97 in Calm     93% 0.00 in 121 W/m2
07:04 74.8 °F 72.3 °F 29.97 in Calm     92% 0.00 in 155 W/m2
07:09 75.3 °F 72.8 °F 29.98 in Calm     91.8% 0.00 in 181 W/m2
07:14 76 °F 73.3 °F 29.97 in Calm     91.2% 0.00 in 207 W/m2
07:19 76.9 °F 73.7 °F 29.97 in Calm     90.1% 0.00 in 188 W/m2
07:24 77.7 °F 73.8 °F 29.98 in Calm     87.8% 0.00 in 192 W/m2
07:29 78.8 °F 74 °F 29.98 in Calm     85.3% 0.00 in 202 W/m2
07:34 79.7 °F 74.1 °F 29.98 in Calm     83.2% 0.00 in 223 W/m2
07:39 80.5 °F 74.3 °F 29.98 in Calm     81.4% 0.00 in 243 W/m2
07:44 81.2 °F 74.5 °F 29.98 in Calm     80.3% 0.00 in 299 W/m2
07:49 81.8 °F 74.6 °F 29.98 in Calm     79% 0.00 in 308 W/m2
07:54 82.3 °F 74.2 °F 29.98 in Calm     76.5% 0.00 in 111 W/m2
07:59 82.7 °F 74.3 °F 29.99 in Calm     76% 0.00 in 308 W/m2
08:00 82.8 °F 74.1 °F 29.98 in Calm     75% 0.00 in 308 W/m2
08:09 83.3 °F 74.3 °F 29.99 in Calm     74.4% 0.00 in 327 W/m2
08:14 83.7 °F 74.4 °F 29.99 in Calm     73.7% 0.00 in 348 W/m2
08:19 84.1 °F 74.4 °F 29.99 in Calm     72.7% 0.00 in 360 W/m2
08:24 84.5 °F 74.6 °F 29.99 in Calm     72.4% 0.00 in 385 W/m2
08:29 85 °F 74.6 °F 29.99 in Calm     71.1% 0.00 in 403 W/m2
08:34 85.5 °F 74.6 °F 29.99 in Calm     70.2% 0.00 in 417 W/m2
08:39 86.1 °F 75 °F 29.99 in Calm     69.6% 0.00 in 431 W/m2
08:44 86.6 °F 74.8 °F 29.99 in Calm     68% 0.00 in 446 W/m2
08:49 87.2 °F 75 °F 29.99 in Calm     67% 0.00 in 461 W/m2
08:54 87.6 °F 75.1 °F 29.99 in Calm     66.7% 0.00 in 471 W/m2
08:59 88 °F 75.3 °F 29.99 in Calm     66.2% 0.00 in 489 W/m2
09:04 88.1 °F 75.2 °F 29.99 in Calm     65.7% 0.00 in 501 W/m2
09:09 88.4 °F 76.5 °F 29.99 in Calm     68% 0.00 in 519 W/m2
09:14 88.7 °F 75.9 °F 29.99 in Calm     65.9% 0.00 in 531 W/m2
09:19 89.2 °F 76 °F 29.99 in Calm     65.3% 0.00 in 545 W/m2
09:24 89.7 °F 76.3 °F 29.99 in Calm     64.8% 0.00 in 559 W/m2
09:29 89.9 °F 75.6 °F 29.99 in Calm     63% 0.00 in 566 W/m2
09:34 89.7 °F 76.3 °F 29.99 in Calm     64.8% 0.00 in 580 W/m2
09:39 89.9 °F 76.3 °F 29.99 in Calm     64.4% 0.00 in 601 W/m2
09:44 90.4 °F 76.5 °F 30.00 in Calm     63.8% 0.00 in 621 W/m2
09:49 90.8 °F 76.3 °F 29.99 in Calm     62.6% 0.00 in 636 W/m2
09:54 91.1 °F 76.1 °F 30.00 in Calm     61.7% 0.00 in 645 W/m2
09:59 91.3 °F 76.4 °F 30.00 in Calm     61.8% 0.00 in 657 W/m2
10:04 91.5 °F 76.6 °F 30.00 in Calm     62% 0.00 in 671 W/m2
10:09 91.6 °F 77.2 °F 30.00 in Calm     62.8% 0.00 in 675 W/m2
10:14 92 °F 77.3 °F 30.00 in Calm     62.4% 0.00 in 701 W/m2
10:19 92.3 °F 76.8 °F 30.00 in Calm     60.8% 0.00 in 714 W/m2
10:24 92.6 °F 76.8 °F 30.00 in Calm     60.2% 0.00 in 722 W/m2
10:29 92.8 °F 76.7 °F 30.00 in Calm     59.7% 0.00 in 714 W/m2
10:34 93.1 °F 77 °F 30.00 in Calm     59.8% 0.00 in 719 W/m2
10:39 93.4 °F 77.1 °F 30.00 in Calm     59.3% 0.00 in 745 W/m2
10:44 93.6 °F 76.6 °F 30.00 in Calm     58% 0.00 in 745 W/m2
10:49 93.4 °F 76 °F 30.00 in Calm     57.1% 0.00 in 737 W/m2
10:54 93.3 °F 76.6 °F 30.00 in Calm     58.6% 0.00 in 758 W/m2
10:59 93.2 °F 76.4 °F 30.00 in Calm     58.2% 0.00 in 775 W/m2
11:04 93.3 °F 77.1 °F 30.00 in Calm     59.6% 0.00 in 784 W/m2
11:09 93.6 °F 77.2 °F 30.01 in Calm     59.1% 0.00 in 793 W/m2
11:14 93.6 °F 75.8 °F 30.00 in Calm     56.5% 0.00 in 798 W/m2
11:19 93.3 °F 76.5 °F 30.01 in Calm     58.4% 0.00 in 800 W/m2
11:24 93.6 °F 76.4 °F 30.00 in Calm     57.6% 0.00 in 795 W/m2
11:29 93.8 °F 76.6 °F 30.00 in Calm     57.7% 0.00 in 780 W/m2
11:34 94.3 °F 76.6 °F 30.00 in Calm     56.8% 0.00 in 793 W/m2
11:39 94.8 °F 76.3 °F 30.00 in Calm     55.3% 0.00 in 791 W/m2
11:44 95.2 °F 75.6 °F 30.00 in Calm     53.5% 0.00 in 791 W/m2
11:49 95.4 °F 76.3 °F 30.00 in Calm     54.2% 0.00 in 823 W/m2
11:54 95.5 °F 76.3 °F 30.00 in WNW 1.3 mph 5 mph 54.2% 0.00 in 835 W/m2
11:59 95.2 °F 75.3 °F 30.00 in WNW 0.1 mph 5 mph 52.9% 0.00 in 849 W/m2
12:00 95 °F 74.6 °F 30.00 in Calm   5 mph 52% 0.00 in 849 W/m2
12:09 95.3 °F 77 °F 30.00 in Calm   1 mph 55.8% 0.00 in 858 W/m2
12:14 95.7 °F 76.3 °F 30.00 in WNW 0.3 mph 3 mph 53.9% 0.00 in 847 W/m2
12:19 95.9 °F 75.6 °F 30.00 in WNW 0.1 mph 3 mph 52.3% 0.00 in 831 W/m2
12:24 95.7 °F 76.4 °F 30.00 in Calm   3 mph 54.1% 0.00 in 849 W/m2
12:29 95.4 °F 75.9 °F 30.00 in WNW 0.1 mph 3 mph 53.7% 0.00 in 865 W/m2
12:34 94.8 °F 76 °F 30.00 in NW 0.1 mph 3 mph 54.8% 0.00 in 863 W/m2
12:39 94.4 °F 75.9 °F 30.00 in NW 0.1 mph 2 mph 55.3% 0.00 in 867 W/m2
12:44 94.3 °F 76.1 °F 30.00 in NW 1.4 mph 4 mph 55.8% 0.00 in 868 W/m2
12:49 94.5 °F 76 °F 29.99 in WNW 1.4 mph 5 mph 55.2% 0.00 in 898 W/m2
12:54 94.8 °F 76.6 °F 29.99 in WNW 0.5 mph 5 mph 55.8% 0.00 in 907 W/m2
12:59 95.1 °F 76.5 °F 29.99 in WNW 1.5 mph 5 mph 55.3% 0.00 in 909 W/m2
13:04 95.5 °F 77 °F 29.99 in West 0.7 mph 5 mph 55.4% 0.00 in 932 W/m2
13:09 95.6 °F 76.4 °F 29.99 in WNW 1.5 mph 9 mph 54.2% 0.00 in 911 W/m2
13:14 95.4 °F 76.4 °F 29.98 in WNW 2.9 mph 9 mph 54.4% 0.00 in 902 W/m2
13:19 95.2 °F 76.4 °F 29.98 in WNW 0.7 mph 9 mph 54.8% 0.00 in 882 W/m2
13:24 95.3 °F 76 °F 29.98 in WNW 0.8 mph 9 mph 54% 0.00 in 882 W/m2
13:29 95.3 °F 75.8 °F 29.98 in WNW 0.4 mph 9 mph 53.6% 0.00 in 884 W/m2
13:34 95.4 °F 75.4 °F 29.97 in WNW 0.4 mph 9 mph 52.8% 0.00 in 889 W/m2
13:39 95.4 °F 76.1 °F 29.97 in West 1.5 mph 5 mph 53.9% 0.00 in 900 W/m2
13:44 95.5 °F 75.7 °F 29.97 in West 0.4 mph 5 mph 53.1% 0.00 in 932 W/m2
13:49 95.5 °F 75.6 °F 29.97 in West 1.5 mph 5 mph 52.9% 0.00 in 881 W/m2
13:54 95.7 °F 75.3 °F 29.97 in West 1 mph 5 mph 52.1% 0.00 in 888 W/m2
13:59 96 °F 76.1 °F 29.96 in WSW 1.9 mph 7 mph 53% 0.00 in 888 W/m2
14:04 96.5 °F 76.3 °F 29.96 in WSW 1.5 mph 7 mph 52.5% 0.00 in 879 W/m2
14:09 96.8 °F 75.5 °F 29.96 in WSW 0.9 mph 5 mph 50.7% 0.00 in 879 W/m2
14:14 97.1 °F 75.5 °F 29.96 in West 2.7 mph 7 mph 50.2% 0.00 in 856 W/m2
14:19 97.3 °F 74.7 °F 29.96 in WNW 1.7 mph 7 mph 48.7% 0.00 in 851 W/m2
14:24 97.5 °F 75 °F 29.96 in WNW 2 mph 7 mph 48.8% 0.00 in 853 W/m2
14:29 97.8 °F 74.4 °F 29.96 in SW 1.5 mph 7 mph 47.3% 0.00 in 849 W/m2
14:34 98 °F 74.8 °F 29.95 in West 3 mph 9 mph 47.6% 0.00 in 837 W/m2
14:39 98.1 °F 74.4 °F 29.95 in West 3.4 mph 9 mph 47% 0.00 in 826 W/m2
14:44 97.9 °F 74.4 °F 29.95 in WNW 2.8 mph 9 mph 47.2% 0.00 in 823 W/m2
14:49 97.9 °F 74.1 °F 29.95 in WSW 3 mph 10 mph 46.7% 0.00 in 805 W/m2
14:54 98 °F 74.2 °F 29.95 in WSW 1.9 mph 10 mph 46.7% 0.00 in 800 W/m2
14:59 98.1 °F 74.6 °F 29.95 in West 4.6 mph 10 mph 47.3% 0.00 in 793 W/m2
15:04 98 °F 74.5 °F 29.95 in WSW 3 mph 11 mph 47.2% 0.00 in 784 W/m2
15:09 98 °F 75.2 °F 29.95 in West 2.4 mph 11 mph 48.3% 0.00 in 777 W/m2
15:14 98.2 °F 75.4 °F 29.95 in WNW 1.9 mph 11 mph 48.4% 0.00 in 770 W/m2
15:19 98.3 °F 75.1 °F 29.95 in West 3.9 mph 11 mph 47.7% 0.00 in 758 W/m2
15:24 98.3 °F 74.8 °F 29.95 in SW 1 mph 11 mph 47.3% 0.00 in 737 W/m2
15:29 98.2 °F 75.1 °F 29.95 in WSW 1.7 mph 11 mph 47.9% 0.00 in 724 W/m2
15:34 98.1 °F 74.8 °F 29.95 in West 1 mph 11 mph 47.5% 0.00 in 708 W/m2
15:39 98.1 °F 75.2 °F 29.94 in West 1.7 mph 5 mph 48.2% 0.00 in 693 W/m2
15:44 98.1 °F 74.8 °F 29.94 in WSW 2.2 mph 7 mph 47.6% 0.00 in 680 W/m2
15:49 98 °F 74.9 °F 29.94 in WSW 2.4 mph 7 mph 47.9% 0.00 in 668 W/m2
15:54 98 °F 74.6 °F 29.94 in WSW 1.1 mph 7 mph 47.3% 0.00 in 650 W/m2
15:59 98 °F 74.7 °F 29.94 in WSW 2.1 mph 7 mph 47.6% 0.00 in 645 W/m2
16:00 97.9 °F 74.9 °F 29.94 in SW 3 mph 7 mph 48% 0.00 in 622 W/m2
16:09 97.6 °F 75 °F 29.93 in WSW 1 mph 4 mph 48.6% 0.00 in 610 W/m2
16:14 97.4 °F 75.3 °F 29.93 in WSW 2 mph 7 mph 49.6% 0.00 in 519 W/m2
16:19 97 °F 75.3 °F 29.93 in WSW 1.9 mph 7 mph 49.9% 0.00 in 60 W/m2
16:24 96.8 °F 75 °F 29.92 in West 0.9 mph 7 mph 49.8% 0.00 in 56 W/m2
16:29 96.4 °F 75.2 °F 29.92 in WSW 1.7 mph 7 mph 50.8% 0.00 in 54 W/m2
16:34 96.2 °F 75.2 °F 29.92 in West 0.5 mph 7 mph 51.1% 0.00 in 53 W/m2
16:39 95.9 °F 74.9 °F 29.92 in West 1.9 mph 5 mph 51.1% 0.00 in 51 W/m2
16:44 95.7 °F 74.8 °F 29.92 in WSW 2 mph 5 mph 51.1% 0.00 in 49 W/m2
16:49 95.5 °F 74.7 °F 29.92 in West 1.9 mph 7 mph 51.3% 0.00 in 49 W/m2
16:54 95.4 °F 75 °F 29.92 in West 0.9 mph 7 mph 52% 0.00 in 51 W/m2
16:59 95.3 °F 74.8 °F 29.92 in West 1 mph 7 mph 51.7% 0.00 in 51 W/m2
17:04 95.3 °F 74.8 °F 29.92 in West 0.7 mph 7 mph 51.9% 0.00 in 47 W/m2
17:09 95.2 °F 74.7 °F 29.92 in WSW 1.7 mph 5 mph 51.7% 0.00 in 46 W/m2
17:14 95.1 °F 74 °F 29.92 in West 1 mph 5 mph 50.6% 0.00 in 44 W/m2
17:19 95.1 °F 74.6 °F 29.93 in WSW 1.9 mph 5 mph 51.9% 0.00 in 42 W/m2
17:24 95 °F 74.2 °F 29.93 in West 1.4 mph 6 mph 51.3% 0.00 in 42 W/m2
17:29 94.9 °F 74.1 °F 29.93 in WSW 1.1 mph 6 mph 51.3% 0.00 in 40 W/m2
17:34 94.8 °F 73.9 °F 29.92 in WSW 0.7 mph 6 mph 51% 0.00 in 40 W/m2
17:39 94.7 °F 74 °F 29.92 in WSW 1.2 mph 4 mph 51.4% 0.00 in 39 W/m2
17:44 94.6 °F 74.1 °F 29.93 in WSW 1.2 mph 5 mph 51.7% 0.00 in 39 W/m2
17:49 94.5 °F 74.1 °F 29.93 in West 1 mph 5 mph 51.9% 0.00 in 37 W/m2
17:54 94.3 °F 74.6 °F 29.92 in WNW 0.2 mph 5 mph 53% 0.00 in 37 W/m2
17:59 94.2 °F 74.4 °F 29.92 in WNW 1.2 mph 5 mph 53% 0.00 in 35 W/m2
18:04 93.9 °F 74.5 °F 29.92 in WNW 0.5 mph 5 mph 53.5% 0.00 in 33 W/m2
18:09 93.8 °F 74.7 °F 29.92 in West 0.3 mph 3 mph 54.1% 0.00 in 33 W/m2
18:14 93.7 °F 75.4 °F 29.93 in West 0.3 mph 3 mph 55.5% 0.00 in 32 W/m2
18:19 93.7 °F 75.2 °F 29.93 in West 0.2 mph 3 mph 55.2% 0.00 in 32 W/m2
18:24 93.6 °F 75.2 °F 29.93 in Calm   3 mph 55.4% 0.00 in 30 W/m2
18:29 93.5 °F 75.5 °F 29.93 in Calm   3 mph 56% 0.00 in 30 W/m2
18:34 93.4 °F 75.5 °F 29.93 in West 0.9 mph 4 mph 56.3% 0.00 in 30 W/m2
18:39 93.3 °F 75.4 °F 29.93 in Calm   4 mph 56.3% 0.00 in 28 W/m2
18:44 93.1 °F 75.2 °F 29.93 in Calm   4 mph 56.2% 0.00 in 26 W/m2
18:49 93 °F 75.5 °F 29.92 in Calm   4 mph 56.9% 0.00 in 25 W/m2
18:54 92.9 °F 75.7 °F 29.93 in Calm   4 mph 57.6% 0.00 in 23 W/m2
18:59 92.7 °F 75.8 °F 29.93 in West 0.1 mph 4 mph 58% 0.00 in 21 W/m2
19:04 92.5 °F 75.6 °F 29.93 in Calm   4 mph 58% 0.00 in 19 W/m2
19:09 92.3 °F 75.7 °F 29.93 in Calm     58.7% 0.00 in 18 W/m2
19:14 92.1 °F 75.7 °F 29.93 in Calm     59% 0.00 in 16 W/m2
19:19 91.9 °F 75.9 °F 29.93 in Calm     59.8% 0.00 in 14 W/m2
19:24 91.6 °F 75.8 °F 29.93 in Calm     60% 0.00 in 11 W/m2
19:29 91.4 °F 76 °F 29.93 in Calm     60.9% 0.00 in 7 W/m2
19:34 91.1 °F 75.8 °F 29.93 in Calm     61% 0.00 in 0 W/m2
19:39 90.8 °F 75.7 °F 29.93 in Calm     61.5% 0.00 in 0 W/m2
19:44 90.4 °F 75.6 °F 29.94 in Calm     62% 0.00 in 0 W/m2
19:49 90.1 °F 75.6 °F 29.94 in Calm     62.5% 0.00 in 0 W/m2
19:54 89.8 °F 75.8 °F 29.94 in Calm     63.5% 0.00 in 0 W/m2
19:59 89.5 °F 75.9 °F 29.94 in Calm     64.5% 0.00 in 0 W/m2
20:09 88.8 °F 76.3 °F 29.94 in Calm     66.7% 0.00 in 0 W/m2
20:14 88.3 °F 75.9 °F 29.94 in Calm     66.9% 0.00 in 0 W/m2
20:19 87.9 °F 75.6 °F 29.94 in Calm     67% 0.00 in 0 W/m2
20:24 87.6 °F 75.3 °F 29.94 in Calm     67% 0.00 in 0 W/m2
20:29 87.4 °F 75.1 °F 29.95 in Calm     67% 0.00 in 0 W/m2
20:34 87.2 °F 75.3 °F 29.95 in Calm     67.8% 0.00 in 0 W/m2
20:39 87 °F 75.2 °F 29.95 in Calm     68% 0.00 in 0 W/m2
20:44 86.9 °F 75.4 °F 29.95 in Calm     68.9% 0.00 in 0 W/m2
20:49 86.7 °F 75.3 °F 29.96 in Calm     69% 0.00 in 0 W/m2
20:54 86.5 °F 75.2 °F 29.96 in Calm     69.2% 0.00 in 0 W/m2
20:59 86.3 °F 75.4 °F 29.96 in Calm     70% 0.00 in 0 W/m2
21:04 86 °F 75.5 °F 29.96 in Calm     70.8% 0.00 in 0 W/m2
21:09 85.8 °F 75.3 °F 29.96 in Calm     71% 0.00 in 0 W/m2
21:14 85.6 °F 75.5 °F 29.96 in Calm     71.9% 0.00 in 0 W/m2
21:19 85.4 °F 75.4 °F 29.95 in Calm     72% 0.00 in 0 W/m2
21:24 85.3 °F 75.3 °F 29.96 in Calm     72.2% 0.00 in 0 W/m2
21:29 85.2 °F 75.5 °F 29.96 in Calm     73% 0.00 in 0 W/m2
21:34 85 °F 75.3 °F 29.95 in Calm     73% 0.00 in 0 W/m2
21:39 84.8 °F 75.2 °F 29.95 in Calm     73% 0.00 in 0 W/m2
21:44 84.7 °F 75 °F 29.95 in Calm     72.8% 0.00 in 0 W/m2
21:49 84.6 °F 74.9 °F 29.96 in Calm     72.8% 0.00 in 0 W/m2
21:54 84.5 °F 74.9 °F 29.96 in Calm     73% 0.00 in 0 W/m2
21:59 84.4 °F 74.8 °F 29.96 in Calm     73% 0.00 in 0 W/m2
22:04 84.3 °F 74.7 °F 29.96 in Calm     73% 0.00 in 0 W/m2
22:09 84.2 °F 74.7 °F 29.97 in Calm     73.3% 0.00 in 0 W/m2
22:14 84.1 °F 74.8 °F 29.97 in Calm     73.8% 0.00 in 0 W/m2
22:19 83.9 °F 74.8 °F 29.97 in Calm     74% 0.00 in 0 W/m2
22:24 83.8 °F 74.7 °F 29.98 in Calm     74% 0.00 in 0 W/m2
22:29 83.7 °F 74.6 °F 29.97 in Calm     74% 0.00 in 0 W/m2
22:34 83.6 °F 74.7 °F 29.98 in Calm     74.5% 0.00 in 0 W/m2
22:39 83.5 °F 74.8 °F 29.98 in Calm     75% 0.00 in 0 W/m2
22:44 83.4 °F 74.7 °F 29.97 in Calm     75% 0.00 in 0 W/m2
22:49 83.3 °F 74.6 °F 29.97 in Calm     75% 0.00 in 0 W/m2
22:54 83.2 °F 74.5 °F 29.97 in Calm     75% 0.00 in 0 W/m2
22:59 83.1 °F 74.6 °F 29.97 in Calm     75.6% 0.00 in 0 W/m2
23:04 83 °F 74.7 °F 29.97 in Calm     76% 0.00 in 0 W/m2
23:09 82.9 °F 74.5 °F 29.97 in Calm     76% 0.00 in 0 W/m2
23:14 82.7 °F 74.4 °F 29.97 in Calm     76% 0.00 in 0 W/m2
23:19 82.6 °F 74.5 °F 29.97 in Calm     76.5% 0.00 in 0 W/m2
23:24 82.5 °F 74.6 °F 29.97 in Calm     77% 0.00 in 0 W/m2
23:29 82.4 °F 74.3 °F 29.97 in Calm     76.7% 0.00 in 0 W/m2
23:34 82.3 °F 74.4 °F 29.97 in Calm     77% 0.00 in 0 W/m2
23:39 82.2 °F 74.3 °F 29.96 in Calm     77% 0.00 in 0 W/m2
23:44 82.1 °F 74.4 °F 29.97 in Calm     77.6% 0.00 in 0 W/m2
23:49 82 °F 74.5 °F 29.97 in Calm     78% 0.00 in 0 W/m2
23:54 81.9 °F 74.4 °F 29.97 in Calm     78% 0.00 in 0 W/m2
23:59 81.8 °F 74.3 °F 29.97 in Calm     78.1% 0.00 in 0 W/m2
Hartford County Weather
Compliments of Weather Underground - 2 mb